Terminal Aerodrome Forecast
Issued by NWS Wilmington, NC

Home | Current Version | Previous Version | Text Only | Print | Product List | Glossary On
Versions: 1 2 3 4 5 6 7 8 9 10 11 12 13 14 15 16 17
000
FTUS42 KILM 011610 AAB
TAFILM
TAF AMD
KILM 011610Z 0116/0212 27008KT P6SM SCT025 SCT250
      TEMPO 0116/0118 BKN025
     FM011900 24008KT P6SM VCSH SCT035 SCT120
     FM012200 21008KT P6SM SCT040 SCT120
     FM020400 22006KT P6SM VCSH BKN080=

USA.gov is the U.S. government's official web portal to all federal, state and local government web resources and services.